Terminal Aerodrome Forecast
Issued by NWS Wilmington, OH

Home | Current Version | Previous Version | Text Only | Print | Product List | Glossary On
Versions: 1 2 3 4 5 6 7 8 9 10 11 12 13 14 15 16 17 18 19 20 21 22
000
FTUS41 KILN 281700
TAFDAY
TAF
KDAY 281730Z 2818/2918 20010KT P6SM BKN080
     FM290000 18010KT P6SM SCT100
     FM291200 19012KT P6SM BKN040
     FM291600 19012G22KT P6SM OVC025=

USA.gov is the U.S. government's official web portal to all federal, state and local government web resources and services.